GBYD/BJL METAR and TAF weather

Enter ICAO airport designator
Station Type Date Time Source
GBYD METAR 2021/05/11 23:00 UTC NOAA

GBYD 112300Z 28009KT CAVOK 22/21 Q1012


Station Type Date Time Source
GBYD Decoded METAR 2021/05/11 23:00 UTC NOAA

Banjul / Yundum, Gambia, The (GBYD) 13-21N 016-48W 36M
May 11, 2021 - 07:00 PM EDT / 2021.05.11 2300 UTC
Wind: from the W (280 degrees) at 10 MPH (9 KT):0
Visibility: greater than 7 mile(s):0
Temperature: 71 F (22 C)
Dew Point: 69 F (21 C)
Relative Humidity: 94%
Pressure (altimeter): 29.88 in. Hg (1012 hPa)
ob: GBYD 112300Z 28009KT CAVOK 22/21 Q1012
cycle: 23

Station Type Date Time Source
GBYD TAF 2021/05/11 18:33 UTC NOAA

TAF TAF GBYD 111700Z 1118/1224 33010KT CAVOK

Example: see airport list